createdAt,value
2019-02-07T00:00:02.937Z,101217.16
2019-02-07T00:03:06.975Z,101200.44
2019-02-07T00:06:11.038Z,101196.66
2019-02-07T00:09:15.102Z,101193.68
2019-02-07T00:12:19.137Z,101188.28
2019-02-07T00:15:23.195Z,101182.87
2019-02-07T00:18:27.253Z,101182.63
2019-02-07T00:21:31.670Z,101177.23
2019-02-07T00:24:42.509Z,101166.14
2019-02-07T00:27:41.469Z,101165.37
2019-02-07T00:30:45.920Z,101156.98
2019-02-07T00:33:49.974Z,101159.16
2019-02-07T00:36:54.017Z,101149.45
2019-02-07T00:39:58.246Z,101151.88
2019-02-07T00:43:02.286Z,101140.54
2019-02-07T00:46:06.348Z,101134.02
2019-02-07T00:49:10.413Z,101128.14
2019-02-07T00:52:14.449Z,101116.28
2019-02-07T00:55:19.846Z,101117.06
2019-02-07T00:58:23.884Z,101106.83
2019-02-07T01:01:27.941Z,101111.66
2019-02-07T01:04:32.000Z,101107.09
2019-02-07T01:13:41.916Z,101101.20
2019-02-07T01:16:45.973Z,101091.18
2019-02-07T01:19:50.034Z,101088.23
2019-02-07T01:22:54.068Z,101089.59
2019-02-07T01:25:58.205Z,101078.55
2019-02-07T01:29:02.272Z,101076.68
2019-02-07T01:32:06.309Z,101077.49
2019-02-07T01:35:10.369Z,101060.20
2019-02-07T01:38:14.405Z,101061.55
2019-02-07T01:41:18.465Z,101054.80
2019-02-07T01:44:22.522Z,101046.19
2019-02-07T01:47:26.559Z,101046.72
2019-02-07T01:50:30.617Z,101039.16
2019-02-07T01:53:34.657Z,101036.22
2019-02-07T01:56:38.714Z,101033.01
2019-02-07T01:59:42.770Z,101034.12
2019-02-07T02:02:46.810Z,101028.72
2019-02-07T02:05:50.869Z,101026.85
2019-02-07T02:08:54.905Z,101017.41
2019-02-07T02:11:58.966Z,101015.23
2019-02-07T02:15:03.030Z,101005.55
2019-02-07T02:18:07.056Z,101000.45
2019-02-07T02:21:11.121Z,100990.99
2019-02-07T02:24:15.176Z,100986.97
2019-02-07T02:27:19.213Z,100987.27
2019-02-07T02:30:25.423Z,100974.88
2019-02-07T02:33:29.458Z,100973.29
2019-02-07T02:36:33.517Z,100964.62
2019-02-07T02:39:37.578Z,100954.69
2019-02-07T02:42:41.789Z,100953.06
2019-02-07T02:45:45.860Z,100949.56
2019-02-07T02:48:49.889Z,100948.77
2019-02-07T02:51:53.949Z,100942.33
2019-02-07T02:54:58.183Z,100943.67
2019-02-07T02:58:02.240Z,100939.36
2019-02-07T03:01:22.973Z,100939.66
2019-02-07T03:04:43.791Z,100932.13
2019-02-07T03:07:58.128Z,100929.70
2019-02-07T03:11:04.159Z,100927.30
2019-02-07T03:14:21.810Z,100917.06
2019-02-07T03:17:29.921Z,100916.50
2019-02-07T03:20:41.361Z,100902.25
2019-02-07T03:23:47.052Z,100896.91
2019-02-07T03:26:55.392Z,100890.70
2019-02-07T03:30:17.363Z,100887.19
2019-02-07T03:33:38.952Z,100879.66
2019-02-07T03:36:56.358Z,100883.72
2019-02-07T03:40:08.241Z,100868.36
2019-02-07T03:43:22.741Z,100865.13
2019-02-07T03:46:46.222Z,100871.06
2019-02-07T03:50:03.802Z,100825.17
2019-02-07T03:53:18.057Z,100825.47
2019-02-07T03:56:39.261Z,100836.81
2019-02-07T03:59:45.316Z,100830.06
2019-02-07T04:02:53.965Z,100836.81
2019-02-07T04:05:59.669Z,100796.09
2019-02-07T04:09:25.299Z,100778.03
2019-02-07T04:12:40.239Z,100789.64
2019-02-07T04:15:55.001Z,100800.16
2019-02-07T04:19:00.677Z,100772.94
2019-02-07T04:22:18.432Z,100772.70
2019-02-07T04:25:39.446Z,100775.64
2019-02-07T04:28:54.050Z,100750.81
2019-02-07T04:32:02.447Z,100764.78
2019-02-07T04:35:11.047Z,100759.89
2019-02-07T04:38:22.475Z,100744.20
2019-02-07T04:41:30.813Z,100748.69
2019-02-07T04:44:39.553Z,100737.48
2019-02-07T04:47:54.260Z,100734.12
2019-02-07T04:51:08.649Z,100722.41
2019-02-07T04:54:29.125Z,100730.64
2019-02-07T04:57:51.169Z,100716.53
2019-02-07T05:00:56.861Z,100711.63
2019-02-07T05:04:08.415Z,100709.44
2019-02-07T05:07:14.115Z,100702.68
2019-02-07T05:10:35.973Z,100677.52
2019-02-07T05:13:56.328Z,100693.16
2019-02-07T05:17:08.037Z,100686.17
2019-02-07T05:20:16.388Z,100674.83
2019-02-07T05:23:28.071Z,100687.21
2019-02-07T05:26:33.745Z,100661.83
2019-02-07T05:29:51.323Z,100656.42
2019-02-07T05:32:57.007Z,100653.72
2019-02-07T05:36:19.139Z,100649.94
2019-02-07T05:39:30.595Z,100633.73
2019-02-07T05:42:36.303Z,100641.29
2019-02-07T05:45:44.647Z,100645.34
2019-02-07T05:48:50.725Z,100622.62
2019-02-07T05:51:56.423Z,100624.52
2019-02-07T05:55:17.069Z,100617.52
2019-02-07T05:58:28.306Z,100614.83
2019-02-07T06:01:39.723Z,100604.56
2019-02-07T06:04:45.427Z,100595.11
2019-02-07T06:07:59.786Z,100586.48
2019-02-07T06:11:05.488Z,100588.41
2019-02-07T06:14:11.458Z,100590.53
2019-02-07T06:17:19.594Z,100585.44
2019-02-07T06:20:25.299Z,100586.48
2019-02-07T06:23:37.086Z,100570.05
2019-02-07T06:26:59.539Z,100567.11
2019-02-07T06:30:09.248Z,100553.92
2019-02-07T06:33:20.826Z,100545.25
2019-02-07T06:36:32.205Z,100542.36
2019-02-07T06:39:37.902Z,100535.87
2019-02-07T06:42:43.584Z,100534.83
2019-02-07T06:45:51.972Z,100527.23
2019-02-07T06:49:00.372Z,100525.37
2019-02-07T06:52:06.065Z,100512.19
2019-02-07T06:55:14.665Z,100509.23
2019-02-07T06:58:20.342Z,100506.30
2019-02-07T07:01:31.791Z,100503.59
2019-02-07T07:04:54.040Z,100494.45
2019-02-07T07:08:05.446Z,100493.65
2019-02-07T07:11:20.133Z,100494.77
2019-02-07T07:14:25.815Z,100489.37
2019-02-07T07:17:43.395Z,100479.42
2019-02-07T07:21:05.231Z,100469.74
2019-02-07T07:24:27.112Z,100460.84
2019-02-07T07:27:38.854Z,100453.05
2019-02-07T07:31:00.831Z,100449.00
2019-02-07T07:34:22.665Z,100441.75
2019-02-07T07:37:46.370Z,100438.56
2019-02-07T07:41:04.063Z,100436.44
2019-02-07T07:44:18.277Z,100432.70
2019-02-07T07:47:35.649Z,100422.98
2019-02-07T07:50:40.230Z,100421.41
2019-02-07T07:53:54.995Z,100418.45
2019-02-07T07:57:06.589Z,100410.12
2019-02-07T08:00:31.058Z,100409.88
2019-02-07T08:03:53.010Z,100401.52
2019-02-07T08:07:13.449Z,100387.80
2019-02-07T08:10:19.151Z,100393.20
2019-02-07T08:13:27.975Z,100388.88
2019-02-07T08:16:39.613Z,100388.66
2019-02-07T08:19:45.317Z,100376.02
2019-02-07T08:22:53.945Z,100380.87
2019-02-07T08:26:16.415Z,100379.83
2019-02-07T08:29:22.113Z,100384.19
2019-02-07T08:32:36.786Z,100384.19
2019-02-07T08:35:42.491Z,100372.59
2019-02-07T08:38:59.913Z,100373.70
2019-02-07T08:42:12.099Z,100368.55
2019-02-07T08:45:34.303Z,100361.88
2019-02-07T08:48:42.757Z,100356.22
2019-02-07T08:51:54.257Z,100351.39
2019-02-07T08:55:08.681Z,100347.89
2019-02-07T08:58:32.773Z,100345.73
2019-02-07T09:01:38.547Z,100352.25
2019-02-07T09:04:56.302Z,100341.77
2019-02-07T09:08:07.437Z,100334.48
2019-02-07T09:11:28.202Z,100336.92
2019-02-07T09:14:36.571Z,100325.89
2019-02-07T09:17:51.177Z,100327.47
2019-02-07T09:21:12.216Z,100325.40
2019-02-07T09:24:34.446Z,100328.09
2019-02-07T09:27:40.145Z,100319.77
2019-02-07T09:31:02.294Z,100320.86
2019-02-07T09:34:17.125Z,100308.72
2019-02-07T09:37:31.610Z,100301.74
2019-02-07T09:40:46.019Z,100297.70
2019-02-07T09:43:57.745Z,100294.19
2019-02-07T09:47:09.206Z,100303.89
2019-02-07T09:50:30.221Z,100300.94
2019-02-07T09:53:38.334Z,100295.85
2019-02-07T09:56:44.035Z,100298.55
2019-02-07T10:00:06.121Z,100298.01
2019-02-07T10:03:14.554Z,100294.50
2019-02-07T10:06:29.097Z,100299.91
2019-02-07T10:09:43.756Z,100284.57
2019-02-07T10:13:05.973Z,100281.09
2019-02-07T10:16:11.733Z,100289.19
2019-02-07T10:19:17.431Z,100284.11
2019-02-07T10:22:35.113Z,100282.76
2019-02-07T10:25:51.349Z,100280.34
2019-02-07T10:29:13.221Z,100279.80
2019-02-07T10:32:24.754Z,100265.50
2019-02-07T10:35:36.442Z,100274.17
2019-02-07T10:38:44.810Z,100268.78
2019-02-07T10:42:07.027Z,100260.42
2019-02-07T10:45:31.645Z,100264.47
2019-02-07T10:48:44.282Z,100256.15
2019-02-07T10:51:53.637Z,100252.10
2019-02-07T10:55:02.253Z,100242.11
2019-02-07T10:58:25.523Z,100249.41
2019-02-07T11:01:38.361Z,100238.61
2019-02-07T11:04:52.745Z,100242.43
2019-02-07T11:08:14.715Z,100238.13
2019-02-07T11:11:20.389Z,100227.64
2019-02-07T11:14:40.997Z,100226.84
2019-02-07T11:18:03.094Z,100221.45
2019-02-07T11:21:17.494Z,100219.87
2019-02-07T11:24:26.174Z,100223.37
2019-02-07T11:27:43.673Z,100216.36
2019-02-07T11:31:05.537Z,100210.20
2019-02-07T11:34:11.517Z,100212.63
2019-02-07T11:37:33.654Z,100208.59
2019-02-07T11:40:42.079Z,100209.94
2019-02-07T11:43:50.713Z,100204.86
2019-02-07T11:47:11.707Z,100201.38
2019-02-07T11:50:17.404Z,100194.88
2019-02-07T11:53:23.089Z,100196.53
2019-02-07T11:56:31.469Z,100199.23
2019-02-07T11:59:37.146Z,100188.98
2019-02-07T12:03:00.698Z,100188.76
2019-02-07T12:06:08.647Z,100187.41
2019-02-07T12:09:30.181Z,100186.06
2019-02-07T12:12:50.918Z,100175.81
2019-02-07T12:15:59.231Z,100185.80
2019-02-07T12:19:04.911Z,100170.73
2019-02-07T12:22:10.613Z,100169.16
2019-02-07T12:25:16.290Z,100169.39
2019-02-07T12:28:38.465Z,100166.69
2019-02-07T12:31:47.199Z,100173.66
2019-02-07T12:35:09.417Z,100161.79
2019-02-07T12:38:21.301Z,100159.63
2019-02-07T12:41:27.002Z,100155.59
2019-02-07T12:44:48.896Z,100152.89
2019-02-07T12:47:57.321Z,100146.95
2019-02-07T12:51:06.162Z,100148.30
2019-02-07T12:54:15.074Z,100141.56
2019-02-07T12:57:29.665Z,100141.30
2019-02-07T13:00:53.285Z,100135.13
2019-02-07T13:04:04.450Z,100132.44
2019-02-07T13:07:16.056Z,100125.69
2019-02-07T13:10:24.498Z,100128.13
2019-02-07T13:13:30.240Z,100134.55
2019-02-07T13:16:52.434Z,100133.52
2019-02-07T13:19:58.127Z,100127.59
2019-02-07T13:23:16.516Z,100142.64
2019-02-07T13:26:22.176Z,100132.66
2019-02-07T13:29:27.923Z,100134.33
2019-02-07T13:32:45.509Z,100144.31
2019-02-07T13:35:54.036Z,100135.45
2019-02-07T13:39:14.698Z,100140.84
2019-02-07T13:42:38.590Z,100139.49
2019-02-07T13:45:44.289Z,100152.98
2019-02-07T13:48:52.842Z,100144.63
2019-02-07T13:52:10.588Z,100148.67
2019-02-07T13:55:16.297Z,100149.48
2019-02-07T13:58:21.978Z,100146.78
2019-02-07T14:01:30.647Z,100145.75
2019-02-07T14:04:52.775Z,100147.09
2019-02-07T14:08:04.150Z,100144.94
2019-02-07T14:11:09.848Z,100145.75
2019-02-07T14:14:15.526Z,100151.45
2019-02-07T14:17:26.970Z,100158.42
2019-02-07T14:20:48.818Z,100154.38
2019-02-07T14:24:10.906Z,100152.23
2019-02-07T14:27:22.789Z,100159.55
2019-02-07T14:30:46.674Z,100164.36
2019-02-07T14:33:52.348Z,100164.94
2019-02-07T14:37:07.049Z,100169.50
2019-02-07T14:40:19.076Z,100170.62
2019-02-07T14:43:27.453Z,100182.17
2019-02-07T14:46:35.818Z,100171.70
2019-02-07T14:49:39.861Z,100177.08
2019-02-07T14:52:43.917Z,100186.69
2019-02-07T14:55:47.960Z,100181.52
2019-02-07T14:58:52.021Z,100176.30
2019-02-07T15:01:56.081Z,100183.45
2019-02-07T15:05:00.126Z,100181.16
2019-02-07T15:08:04.252Z,100177.55
2019-02-07T15:11:08.286Z,100176.28
2019-02-07T15:14:12.349Z,100172.41
2019-02-07T15:17:16.408Z,100173.03
2019-02-07T15:20:26.306Z,100172.98
2019-02-07T15:23:26.209Z,100172.40
2019-02-07T15:26:30.286Z,100157.27
2019-02-07T15:29:34.326Z,100163.70
2019-02-07T15:32:38.390Z,100159.08
2019-02-07T15:35:45.420Z,100160.69
2019-02-07T15:38:49.483Z,100165.99
2019-02-07T15:41:53.540Z,100154.66
2019-02-07T15:44:57.575Z,100152.73
2019-02-07T15:48:01.633Z,100155.69
2019-02-07T15:51:05.836Z,100148.62
2019-02-07T15:54:09.903Z,100145.11
2019-02-07T15:57:13.962Z,100151.31
2019-02-07T16:00:37.326Z,100151.31
2019-02-07T16:03:43.025Z,100141.33
2019-02-07T16:06:47.100Z,100152.13
2019-02-07T16:09:51.138Z,100160.98
2019-02-07T16:12:55.197Z,100153.21
2019-02-07T16:15:59.238Z,100162.92
2019-02-07T16:19:03.370Z,100156.17
2019-02-07T16:22:07.434Z,100161.80
2019-02-07T16:25:13.513Z,100158.87
2019-02-07T16:28:20.213Z,100163.95
2019-02-07T16:31:23.417Z,100162.34
2019-02-07T16:34:27.477Z,100166.02
2019-02-07T16:37:31.537Z,100161.41
2019-02-07T16:40:35.754Z,100167.89
2019-02-07T16:43:39.818Z,100163.91
2019-02-07T16:46:43.869Z,100166.28
2019-02-07T16:49:48.215Z,100163.70
2019-02-07T16:52:52.363Z,100158.72
2019-02-07T16:55:56.385Z,100158.97
2019-02-07T16:59:00.447Z,100160.00
2019-02-07T17:02:04.486Z,100168.41
2019-02-07T17:05:09.206Z,100156.55
2019-02-07T17:08:13.249Z,100175.20
2019-02-07T17:11:17.289Z,100170.22
2019-02-07T17:14:22.326Z,100159.88
2019-02-07T17:17:26.385Z,100157.61
2019-02-07T17:20:31.460Z,100164.48
2019-02-07T17:23:35.520Z,100147.41
2019-02-07T17:26:39.553Z,100157.20
2019-02-07T17:29:43.610Z,100146.17
2019-02-07T17:32:47.681Z,100158.22
2019-02-07T17:35:51.717Z,100157.66
2019-02-07T17:38:55.782Z,100150.23
2019-02-07T17:41:59.824Z,100156.60
2019-02-07T17:45:05.221Z,100156.16
2019-02-07T17:48:09.281Z,100154.73
2019-02-07T17:51:23.006Z,100145.68
2019-02-07T17:54:19.289Z,100148.70
2019-02-07T17:57:23.453Z,100149.52
2019-02-07T18:00:55.919Z,100144.08
2019-02-07T18:03:59.983Z,100130.31
2019-02-07T18:07:04.292Z,100131.13
2019-02-07T18:10:11.094Z,100128.00
2019-02-07T18:13:15.156Z,100134.02
2019-02-07T18:16:19.196Z,100144.19
2019-02-07T18:19:23.261Z,100140.97
2019-02-07T18:22:27.301Z,100134.73
2019-02-07T18:25:31.368Z,100138.97
2019-02-07T18:28:35.436Z,100142.88
2019-02-07T18:31:41.183Z,100146.17
2019-02-07T18:34:45.249Z,100144.34
2019-02-07T18:37:50.983Z,100142.52
2019-02-07T18:40:55.043Z,100134.63
2019-02-07T18:43:59.105Z,100150.62
2019-02-07T18:47:03.424Z,100144.20
2019-02-07T18:50:10.744Z,100147.92
2019-02-07T18:53:14.888Z,100149.28
2019-02-07T18:56:19.334Z,100143.17
2019-02-07T18:59:23.400Z,100158.92
2019-02-07T19:02:27.440Z,100154.17
2019-02-07T19:05:31.910Z,100155.81
2019-02-07T19:08:35.941Z,100152.13
2019-02-07T19:11:39.980Z,100158.45
2019-02-07T19:14:44.320Z,100158.86
2019-02-07T19:17:48.360Z,100157.50
2019-02-07T19:20:52.425Z,100161.09
2019-02-07T19:23:56.860Z,100158.38
2019-02-07T19:27:00.909Z,100156.70
2019-02-07T19:30:26.393Z,100162.52
2019-02-07T19:33:30.455Z,100167.34
2019-02-07T19:36:34.777Z,100168.24
2019-02-07T19:39:38.844Z,100186.95
2019-02-07T19:42:42.878Z,100195.39
2019-02-07T19:45:47.420Z,100202.00
2019-02-07T19:48:51.485Z,100197.72
2019-02-07T19:51:55.524Z,100208.84
2019-02-07T19:54:59.764Z,100210.44
2019-02-07T19:58:03.821Z,100221.26
2019-02-07T20:01:07.875Z,100215.38
2019-02-07T20:04:11.934Z,100223.81
2019-02-07T20:07:15.976Z,100227.16
2019-02-07T20:10:22.805Z,100237.44
2019-02-07T20:13:27.220Z,100243.30
2019-02-07T20:16:31.284Z,100252.43
2019-02-07T20:19:35.347Z,100260.87
2019-02-07T20:22:39.383Z,100271.56
2019-02-07T20:25:43.491Z,100277.03
2019-02-07T20:28:47.533Z,100283.80
2019-02-07T20:31:51.600Z,100287.14
2019-02-07T20:34:55.664Z,100282.86
2019-02-07T20:37:59.704Z,100283.09
2019-02-07T20:41:03.777Z,100296.19
2019-02-07T20:44:07.834Z,100295.88
2019-02-07T20:47:11.871Z,100302.15
2019-02-07T20:50:21.072Z,100300.89
2019-02-07T20:53:25.111Z,100287.63
2019-02-07T20:56:29.179Z,100301.59
2019-02-07T20:59:33.254Z,100308.13
2019-02-07T21:02:37.277Z,100312.64
2019-02-07T21:05:41.515Z,100311.61
2019-02-07T21:08:45.571Z,100314.16
2019-02-07T21:11:49.620Z,100316.63
2019-02-07T21:14:54.066Z,100318.05
2019-02-07T21:17:58.104Z,100318.69
2019-02-07T21:21:02.163Z,100313.05
2019-02-07T21:24:06.598Z,100317.98
2019-02-07T21:27:11.052Z,100321.06
2019-02-07T21:30:17.861Z,100332.78
2019-02-07T21:33:22.180Z,100329.81
2019-02-07T21:36:26.246Z,100340.72
2019-02-07T21:39:30.313Z,100339.92
2019-02-07T21:42:34.362Z,100343.25
2019-02-07T21:45:38.419Z,100343.58
2019-02-07T21:48:42.459Z,100353.90
2019-02-07T21:51:46.527Z,100363.68
2019-02-07T21:54:50.603Z,100358.05
2019-02-07T21:57:54.632Z,100358.68
2019-02-07T22:00:58.696Z,100371.94
2019-02-07T22:04:02.737Z,100373.12
2019-02-07T22:07:06.795Z,100383.15
2019-02-07T22:10:13.600Z,100385.42
2019-02-07T22:13:17.636Z,100391.14
2019-02-07T22:16:21.697Z,100397.98
2019-02-07T22:19:25.750Z,100398.04
2019-02-07T22:22:29.823Z,100395.97
2019-02-07T22:25:33.883Z,100393.27
2019-02-07T22:28:37.931Z,100395.52
2019-02-07T22:31:41.995Z,100400.25
2019-02-07T22:34:46.030Z,100401.60
2019-02-07T22:37:50.096Z,100400.02
2019-02-07T22:40:54.155Z,100404.13
2019-02-07T22:43:58.200Z,100407.95
2019-02-07T22:47:02.260Z,100400.70
2019-02-07T22:50:12.479Z,100411.02
2019-02-07T22:53:16.520Z,100403.77
2019-02-07T22:56:20.864Z,100417.05
2019-02-07T22:59:24.908Z,100415.52
2019-02-07T23:02:28.959Z,100417.41
2019-02-07T23:05:33.403Z,100420.40
2019-02-07T23:08:37.442Z,100422.95
2019-02-07T23:11:41.506Z,100428.09
2019-02-07T23:14:45.928Z,100424.61
2019-02-07T23:17:49.986Z,100428.41
2019-02-07T23:20:54.045Z,100440.64
2019-02-07T23:23:58.460Z,100443.87
2019-02-07T23:27:02.560Z,100457.46
2019-02-07T23:30:17.482Z,100447.44
2019-02-07T23:33:21.533Z,100454.01
2019-02-07T23:36:25.582Z,100456.47
2019-02-07T23:39:29.620Z,100466.47
2019-02-07T23:42:33.683Z,100470.83
2019-02-07T23:45:37.743Z,100466.28
2019-02-07T23:48:41.783Z,100468.98
2019-02-07T23:51:45.868Z,100470.91
2019-02-07T23:54:49.912Z,100480.67
2019-02-07T23:57:53.968Z,100482.64
